createdAt,value
2023-04-26T00:02:35.096Z,4.15
2023-04-26T00:07:38.640Z,4.02
2023-04-26T00:12:40.725Z,4.02
2023-04-26T00:17:42.953Z,3.95
2023-04-26T00:22:46.877Z,3.91
2023-04-26T00:27:49.236Z,3.76
2023-04-26T00:32:51.713Z,3.74
2023-04-26T00:37:55.278Z,3.74
2023-04-26T00:42:58.170Z,3.69
2023-04-26T00:48:02.196Z,3.75
2023-04-26T00:53:06.744Z,3.63
2023-04-26T00:58:09.492Z,3.58
2023-04-26T01:03:12.199Z,3.61
2023-04-26T01:08:16.318Z,3.56
2023-04-26T01:13:18.108Z,3.47
2023-04-26T01:18:20.270Z,3.45
2023-04-26T01:23:24.952Z,3.44
2023-04-26T01:28:27.281Z,3.41
2023-04-26T01:33:29.811Z,3.35
2023-04-26T01:38:33.166Z,3.24
2023-04-26T01:43:35.334Z,3.18
2023-04-26T01:48:37.523Z,3.10
2023-04-26T01:53:40.658Z,3.10
2023-04-26T01:58:42.970Z,3.01
2023-04-26T02:03:45.216Z,2.97
2023-04-26T02:08:48.929Z,2.90
2023-04-26T02:13:50.620Z,2.81
2023-04-26T02:18:53.336Z,2.89
2023-04-26T02:23:57.339Z,2.92
2023-04-26T02:28:59.866Z,2.80
2023-04-26T02:34:01.938Z,2.70
2023-04-26T02:39:05.712Z,2.69
2023-04-26T02:44:07.709Z,2.65
2023-04-26T02:49:09.896Z,2.54
2023-04-26T02:54:13.656Z,2.62
2023-04-26T02:59:15.831Z,2.57
2023-04-26T03:04:18.342Z,2.46
2023-04-26T03:09:21.856Z,2.49
2023-04-26T03:14:23.947Z,2.45
2023-04-26T03:19:26.084Z,2.57
2023-04-26T03:24:29.579Z,2.61
2023-04-26T03:29:31.560Z,2.62
2023-04-26T03:34:33.666Z,2.65
2023-04-26T03:39:37.279Z,2.65
2023-04-26T03:44:39.774Z,2.66
2023-04-26T03:49:42.367Z,2.68
2023-04-26T03:54:46.192Z,2.65
2023-04-26T03:59:48.900Z,2.69
2023-04-26T04:04:51.097Z,2.77
2023-04-26T04:09:54.803Z,2.67
2023-04-26T04:14:57.089Z,2.78
2023-04-26T04:19:58.792Z,2.72
2023-04-26T04:25:02.464Z,2.85
2023-04-26T04:30:06.380Z,2.90
2023-04-26T04:35:09.173Z,3.06
2023-04-26T04:40:13.558Z,3.11
2023-04-26T04:45:16.391Z,3.28
2023-04-26T04:50:18.450Z,3.54
2023-04-26T04:55:21.959Z,3.57
2023-04-26T05:00:23.944Z,4.20
2023-04-26T05:05:27.645Z,5.57
2023-04-26T05:10:31.979Z,5.94
2023-04-26T05:15:33.654Z,6.40
2023-04-26T05:20:35.696Z,6.85
2023-04-26T05:25:39.173Z,7.65
2023-04-26T05:30:41.518Z,7.62
2023-04-26T05:35:43.657Z,7.27
2023-04-26T05:40:46.892Z,7.36
2023-04-26T05:45:52.350Z,7.51
2023-04-26T05:50:54.321Z,7.90
2023-04-26T05:55:57.671Z,7.47
2023-04-26T06:00:59.781Z,8.25
2023-04-26T06:06:02.036Z,8.04
2023-04-26T06:11:05.718Z,8.20
2023-04-26T06:16:08.045Z,6.98
2023-04-26T06:21:10.122Z,6.43
2023-04-26T06:26:13.562Z,6.51
2023-04-26T06:31:16.144Z,6.29
2023-04-26T06:36:17.902Z,6.10
2023-04-26T06:41:21.353Z,6.29
2023-04-26T06:46:23.633Z,6.43
2023-04-26T06:51:25.792Z,6.52
2023-04-26T06:56:29.315Z,6.65
2023-04-26T07:01:32.924Z,6.92
2023-04-26T07:06:35.053Z,7.42
2023-04-26T07:11:38.572Z,7.65
2023-04-26T07:16:41.171Z,7.69
2023-04-26T07:21:43.248Z,7.56
2023-04-26T07:26:46.680Z,7.70
2023-04-26T07:31:49.389Z,7.41
2023-04-26T07:36:51.387Z,7.83
2023-04-26T07:41:55.573Z,8.33
2023-04-26T07:46:57.930Z,9.07
2023-04-26T07:51:59.951Z,8.93
2023-04-26T07:57:03.414Z,8.77
2023-04-26T08:02:05.558Z,9.22
2023-04-26T08:07:07.643Z,9.01
2023-04-26T08:12:11.518Z,8.86
2023-04-26T08:17:13.652Z,8.61
2023-04-26T08:22:15.784Z,8.11
2023-04-26T08:27:19.281Z,8.09
2023-04-26T08:32:21.657Z,8.49
2023-04-26T08:37:23.839Z,8.92
2023-04-26T08:42:28.734Z,9.41
2023-04-26T08:47:39.999Z,8.85
2023-04-26T08:52:42.993Z,9.25
2023-04-26T08:57:48.004Z,9.81
2023-04-26T09:02:51.494Z,9.76
2023-04-26T09:07:57.474Z,9.22
2023-04-26T09:13:00.962Z,8.87
2023-04-26T09:18:20.061Z,9.06
2023-04-26T09:23:22.509Z,9.22
2023-04-26T09:28:25.883Z,15.06
2023-04-26T09:33:28.153Z,13.12
2023-04-26T09:38:30.310Z,10.23
2023-04-26T09:43:38.202Z,9.49
2023-04-26T09:48:40.271Z,15.83
2023-04-26T09:53:46.722Z,10.43
2023-04-26T09:59:00.302Z,15.44
2023-04-26T10:04:02.693Z,14.30
2023-04-26T10:09:04.988Z,14.09
2023-04-26T10:14:08.493Z,11.97
2023-04-26T10:19:11.039Z,14.76
2023-04-26T10:24:13.222Z,11.55
2023-04-26T10:29:16.774Z,10.68
2023-04-26T10:34:20.511Z,12.09
2023-04-26T10:39:22.577Z,15.85
2023-04-26T10:44:42.045Z,13.96
2023-04-26T10:49:45.439Z,11.25
2023-04-26T10:54:52.730Z,10.19
2023-04-26T11:00:19.155Z,9.99
2023-04-26T11:05:34.558Z,9.49
2023-04-26T11:10:39.549Z,9.86
2023-04-26T11:15:42.687Z,9.33
2023-04-26T11:20:45.148Z,8.71
2023-04-26T11:25:46.924Z,8.75
2023-04-26T11:30:50.788Z,9.05
2023-04-26T11:35:55.471Z,9.61
2023-04-26T11:40:59.214Z,11.02
2023-04-26T11:46:03.673Z,10.72
2023-04-26T11:51:07.639Z,10.68
2023-04-26T11:56:16.566Z,10.73
2023-04-26T12:01:24.672Z,10.63
2023-04-26T12:06:30.205Z,10.47
2023-04-26T12:11:32.099Z,10.00
2023-04-26T12:16:37.732Z,9.97
2023-04-26T12:21:43.474Z,9.60
2023-04-26T12:26:45.583Z,9.87
2023-04-26T12:31:48.830Z,10.33
2023-04-26T12:36:51.452Z,10.61
2023-04-26T12:41:53.604Z,9.98
2023-04-26T12:46:57.108Z,9.96
2023-04-26T12:51:59.229Z,9.58
2023-04-26T12:57:01.034Z,10.04
2023-04-26T13:02:04.482Z,11.42
2023-04-26T13:07:06.661Z,12.09
2023-04-26T13:12:08.787Z,12.32
2023-04-26T13:17:12.474Z,12.48
2023-04-26T13:22:16.192Z,12.14
2023-04-26T13:27:18.290Z,12.34
2023-04-26T13:32:21.910Z,11.61
2023-04-26T13:37:24.370Z,11.58
2023-04-26T13:42:26.506Z,11.66
2023-04-26T13:47:29.929Z,10.78
2023-04-26T13:52:32.071Z,10.50
2023-04-26T13:57:34.169Z,9.93
2023-04-26T14:02:38.909Z,10.05
2023-04-26T14:07:41.541Z,10.09
2023-04-26T14:12:43.672Z,10.34
2023-04-26T14:17:47.853Z,9.81
2023-04-26T14:22:50.006Z,9.93
2023-04-26T14:27:53.598Z,10.63
2023-04-26T14:32:57.393Z,11.44
2023-04-26T14:37:59.768Z,11.99
2023-04-26T14:43:01.906Z,12.01
2023-04-26T14:48:06.196Z,11.85
2023-04-26T14:53:08.328Z,11.52
2023-04-26T14:58:10.481Z,11.81
2023-04-26T15:03:14.063Z,11.38
2023-04-26T15:08:17.354Z,10.85
2023-04-26T15:13:19.763Z,11.18
2023-04-26T15:18:23.472Z,10.96
2023-04-26T15:23:25.954Z,10.36
2023-04-26T15:28:28.077Z,10.51
2023-04-26T15:33:31.738Z,11.19
2023-04-26T15:38:34.672Z,11.99
2023-04-26T15:43:36.771Z,11.66
2023-04-26T15:48:41.133Z,11.71
2023-04-26T15:53:43.781Z,12.00
2023-04-26T15:58:46.198Z,11.85
2023-04-26T16:03:49.397Z,10.95
2023-04-26T16:08:52.436Z,10.58
2023-04-26T16:13:54.485Z,10.34
2023-04-26T16:18:57.970Z,10.39
2023-04-26T16:24:00.424Z,10.57
2023-04-26T16:29:02.380Z,11.43
2023-04-26T16:34:05.816Z,11.48
2023-04-26T16:39:08.392Z,11.50
2023-04-26T16:44:10.605Z,11.72
2023-04-26T16:49:14.050Z,10.94
2023-04-26T16:54:16.161Z,10.55
2023-04-26T16:59:18.179Z,10.42
2023-04-26T17:04:21.810Z,9.93
2023-04-26T17:09:23.988Z,9.72
2023-04-26T17:14:26.070Z,9.79
2023-04-26T17:19:29.747Z,9.65
2023-04-26T17:24:32.183Z,9.59
2023-04-26T17:29:34.275Z,9.69
2023-04-26T17:34:37.640Z,9.50
2023-04-26T17:39:40.030Z,9.08
2023-04-26T17:44:43.335Z,8.83
2023-04-26T17:49:47.011Z,8.70
2023-04-26T17:54:49.151Z,8.40
2023-04-26T17:59:51.529Z,8.30
2023-04-26T18:04:55.127Z,8.05
2023-04-26T18:09:57.464Z,7.81
2023-04-26T18:15:00.208Z,7.63
2023-04-26T18:20:03.520Z,7.43
2023-04-26T18:25:06.320Z,7.39
2023-04-26T18:30:09.357Z,7.30
2023-04-26T18:35:13.114Z,7.17
2023-04-26T18:40:15.405Z,7.15
2023-04-26T18:45:17.225Z,7.10
2023-04-26T18:50:20.611Z,7.16
2023-04-26T18:55:22.576Z,7.20
2023-04-26T19:00:24.753Z,7.17
2023-04-26T19:05:28.392Z,7.19
2023-04-26T19:10:30.699Z,7.15
2023-04-26T19:15:33.044Z,7.13
2023-04-26T19:20:36.297Z,7.14
2023-04-26T19:25:38.880Z,7.10
2023-04-26T19:30:40.670Z,7.06
2023-04-26T19:35:44.418Z,7.07
2023-04-26T19:40:46.728Z,7.09
2023-04-26T19:45:49.040Z,7.10
2023-04-26T19:50:52.722Z,7.07
2023-04-26T19:55:54.608Z,7.09
2023-04-26T20:00:56.778Z,7.09
2023-04-26T20:06:00.562Z,7.03
2023-04-26T20:11:02.825Z,7.09
2023-04-26T20:16:05.228Z,7.09
2023-04-26T20:21:08.650Z,7.23
2023-04-26T20:26:11.133Z,7.22
2023-04-26T20:31:13.302Z,7.36
2023-04-26T20:36:17.015Z,7.31
2023-04-26T20:41:19.247Z,7.29
2023-04-26T20:46:21.261Z,7.28
2023-04-26T20:51:24.408Z,7.15
2023-04-26T20:56:26.411Z,7.06
2023-04-26T21:01:28.655Z,7.05
2023-04-26T21:06:32.049Z,6.99
2023-04-26T21:11:34.186Z,6.91
2023-04-26T21:16:37.131Z,6.86
2023-04-26T21:21:40.639Z,6.80
2023-04-26T21:26:42.547Z,6.90
2023-04-26T21:31:44.983Z,6.99
2023-04-26T21:36:48.534Z,6.98
2023-04-26T21:41:50.887Z,7.14
2023-04-26T21:46:52.770Z,7.19
2023-04-26T21:51:56.251Z,7.27
2023-04-26T21:56:58.156Z,7.29
2023-04-26T22:02:00.521Z,7.24
2023-04-26T22:07:03.771Z,7.21
2023-04-26T22:12:06.185Z,7.19
2023-04-26T22:17:08.573Z,7.18
2023-04-26T22:22:12.167Z,7.28
2023-04-26T22:27:14.159Z,7.24
2023-04-26T22:32:16.439Z,7.16
2023-04-26T22:37:21.632Z,7.25
2023-04-26T22:42:24.204Z,7.12
2023-04-26T22:47:26.248Z,7.20
2023-04-26T22:52:31.807Z,7.05
2023-04-26T22:57:34.100Z,7.05
2023-04-26T23:02:36.303Z,7.04
2023-04-26T23:07:39.982Z,6.93
2023-04-26T23:12:42.087Z,7.01
2023-04-26T23:17:44.182Z,6.94
2023-04-26T23:22:47.514Z,6.89
2023-04-26T23:27:49.417Z,6.84
2023-04-26T23:32:51.716Z,6.83
2023-04-26T23:37:55.289Z,6.95
2023-04-26T23:42:57.646Z,6.85
2023-04-26T23:47:59.736Z,6.95
2023-04-26T23:53:03.116Z,6.99
2023-04-26T23:58:05.213Z,6.89
